sensor_id;sensor_type;location;lat;lon;timestamp;P1;durP1;ratioP1;P2;durP2;ratioP2
70459;SDS011;57920;54.796;9.430;2022-08-23T00:01:51;3.87;;;2.70;;
70459;SDS011;57920;54.796;9.430;2022-08-23T00:04:29;2.70;;;2.03;;
70459;SDS011;57920;54.796;9.430;2022-08-23T00:06:57;4.23;;;2.53;;
70459;SDS011;57920;54.796;9.430;2022-08-23T00:09:24;4.23;;;2.50;;
70459;SDS011;57920;54.796;9.430;2022-08-23T00:14:23;3.10;;;2.30;;
70459;SDS011;57920;54.796;9.430;2022-08-23T00:16:51;5.23;;;2.67;;
70459;SDS011;57920;54.796;9.430;2022-08-23T00:19:19;3.23;;;1.90;;
70459;SDS011;57920;54.796;9.430;2022-08-23T00:21:45;6.17;;;2.37;;
70459;SDS011;57920;54.796;9.430;2022-08-23T00:24:12;4.33;;;2.23;;
70459;SDS011;57920;54.796;9.430;2022-08-23T00:29:39;3.97;;;1.90;;
70459;SDS011;57920;54.796;9.430;2022-08-23T00:32:07;2.63;;;2.23;;
70459;SDS011;57920;54.796;9.430;2022-08-23T00:34:36;3.47;;;2.10;;
70459;SDS011;57920;54.796;9.430;2022-08-23T00:37:02;2.43;;;2.03;;
70459;SDS011;57920;54.796;9.430;2022-08-23T00:39:28;3.27;;;2.07;;
70459;SDS011;57920;54.796;9.430;2022-08-23T00:41:58;3.13;;;2.47;;
70459;SDS011;57920;54.796;9.430;2022-08-23T00:44:49;3.77;;;1.90;;
70459;SDS011;57920;54.796;9.430;2022-08-23T00:47:34;3.83;;;2.07;;
70459;SDS011;57920;54.796;9.430;2022-08-23T00:50:17;3.63;;;2.37;;
70459;SDS011;57920;54.796;9.430;2022-08-23T00:52:59;3.17;;;2.20;;
70459;SDS011;57920;54.796;9.430;2022-08-23T00:55:47;3.53;;;1.90;;
70459;SDS011;57920;54.796;9.430;2022-08-23T00:58:18;3.43;;;1.93;;
70459;SDS011;57920;54.796;9.430;2022-08-23T01:00:45;3.07;;;1.70;;
70459;SDS011;57920;54.796;9.430;2022-08-23T01:03:12;3.93;;;2.40;;
70459;SDS011;57920;54.796;9.430;2022-08-23T01:08:28;2.27;;;1.83;;
70459;SDS011;57920;54.796;9.430;2022-08-23T01:10:57;2.37;;;2.10;;
70459;SDS011;57920;54.796;9.430;2022-08-23T01:13:38;2.13;;;1.70;;
70459;SDS011;57920;54.796;9.430;2022-08-23T01:16:18;3.20;;;1.70;;
70459;SDS011;57920;54.796;9.430;2022-08-23T01:18:49;2.03;;;1.73;;
70459;SDS011;57920;54.796;9.430;2022-08-23T01:21:22;2.77;;;2.03;;
70459;SDS011;57920;54.796;9.430;2022-08-23T01:23:55;3.70;;;2.00;;
70459;SDS011;57920;54.796;9.430;2022-08-23T01:26:23;4.47;;;2.00;;
70459;SDS011;57920;54.796;9.430;2022-08-23T01:28:52;3.63;;;2.13;;
70459;SDS011;57920;54.796;9.430;2022-08-23T01:31:18;3.67;;;2.40;;
70459;SDS011;57920;54.796;9.430;2022-08-23T01:33:45;2.20;;;1.90;;
70459;SDS011;57920;54.796;9.430;2022-08-23T01:36:18;2.97;;;2.30;;
70459;SDS011;57920;54.796;9.430;2022-08-23T01:38:43;2.40;;;1.73;;
70459;SDS011;57920;54.796;9.430;2022-08-23T01:41:09;2.13;;;1.87;;
70459;SDS011;57920;54.796;9.430;2022-08-23T01:43:35;3.73;;;2.00;;
70459;SDS011;57920;54.796;9.430;2022-08-23T01:46:08;3.80;;;2.00;;
70459;SDS011;57920;54.796;9.430;2022-08-23T01:48:35;3.07;;;2.00;;
70459;SDS011;57920;54.796;9.430;2022-08-23T01:51:01;1.50;;;1.40;;
70459;SDS011;57920;54.796;9.430;2022-08-23T01:53:27;3.00;;;1.90;;
70459;SDS011;57920;54.796;9.430;2022-08-23T01:55:52;2.43;;;2.00;;
70459;SDS011;57920;54.796;9.430;2022-08-23T01:58:18;4.73;;;2.00;;
70459;SDS011;57920;54.796;9.430;2022-08-23T02:00:44;2.23;;;1.80;;
70459;SDS011;57920;54.796;9.430;2022-08-23T02:03:09;4.93;;;2.20;;
70459;SDS011;57920;54.796;9.430;2022-08-23T02:05:36;1.70;;;1.40;;
70459;SDS011;57920;54.796;9.430;2022-08-23T02:08:04;2.00;;;1.60;;
70459;SDS011;57920;54.796;9.430;2022-08-23T02:10:49;2.03;;;1.80;;
70459;SDS011;57920;54.796;9.430;2022-08-23T02:13:15;4.87;;;2.20;;
70459;SDS011;57920;54.796;9.430;2022-08-23T02:15:42;2.47;;;1.80;;
70459;SDS011;57920;54.796;9.430;2022-08-23T02:18:08;3.20;;;2.03;;
70459;SDS011;57920;54.796;9.430;2022-08-23T02:20:34;2.87;;;1.83;;
70459;SDS011;57920;54.796;9.430;2022-08-23T02:23:00;2.30;;;1.67;;
70459;SDS011;57920;54.796;9.430;2022-08-23T02:25:27;3.43;;;2.10;;
70459;SDS011;57920;54.796;9.430;2022-08-23T02:27:52;3.00;;;2.00;;
70459;SDS011;57920;54.796;9.430;2022-08-23T02:30:18;3.03;;;1.83;;
70459;SDS011;57920;54.796;9.430;2022-08-23T02:32:44;2.60;;;1.70;;
70459;SDS011;57920;54.796;9.430;2022-08-23T02:35:10;3.53;;;2.00;;
70459;SDS011;57920;54.796;9.430;2022-08-23T02:37:36;3.10;;;2.00;;
70459;SDS011;57920;54.796;9.430;2022-08-23T02:40:03;2.40;;;1.63;;
70459;SDS011;57920;54.796;9.430;2022-08-23T02:42:30;4.10;;;2.00;;
70459;SDS011;57920;54.796;9.430;2022-08-23T02:44:55;2.70;;;1.93;;
70459;SDS011;57920;54.796;9.430;2022-08-23T02:47:21;2.67;;;1.80;;
70459;SDS011;57920;54.796;9.430;2022-08-23T02:49:47;1.53;;;1.43;;
70459;SDS011;57920;54.796;9.430;2022-08-23T02:52:13;2.50;;;1.93;;
70459;SDS011;57920;54.796;9.430;2022-08-23T02:54:39;2.80;;;1.70;;
70459;SDS011;57920;54.796;9.430;2022-08-23T02:57:04;2.43;;;2.20;;
70459;SDS011;57920;54.796;9.430;2022-08-23T02:59:30;2.50;;;1.67;;
70459;SDS011;57920;54.796;9.430;2022-08-23T03:01:56;2.03;;;1.80;;
70459;SDS011;57920;54.796;9.430;2022-08-23T03:04:21;2.00;;;1.77;;
70459;SDS011;57920;54.796;9.430;2022-08-23T03:06:47;2.47;;;1.90;;
70459;SDS011;57920;54.796;9.430;2022-08-23T03:09:13;2.80;;;1.90;;
70459;SDS011;57920;54.796;9.430;2022-08-23T03:11:45;2.20;;;1.47;;
70459;SDS011;57920;54.796;9.430;2022-08-23T03:14:11;3.40;;;1.87;;
70459;SDS011;57920;54.796;9.430;2022-08-23T03:16:37;3.53;;;1.77;;
70459;SDS011;57920;54.796;9.430;2022-08-23T03:19:03;1.60;;;1.30;;
70459;SDS011;57920;54.796;9.430;2022-08-23T03:21:28;2.40;;;1.83;;
70459;SDS011;57920;54.796;9.430;2022-08-23T03:23:55;2.00;;;1.77;;
70459;SDS011;57920;54.796;9.430;2022-08-23T03:26:20;3.57;;;1.97;;
70459;SDS011;57920;54.796;9.430;2022-08-23T03:28:46;3.83;;;1.53;;
70459;SDS011;57920;54.796;9.430;2022-08-23T03:31:12;2.63;;;1.90;;
70459;SDS011;57920;54.796;9.430;2022-08-23T03:33:39;3.30;;;2.13;;
70459;SDS011;57920;54.796;9.430;2022-08-23T03:36:05;2.50;;;2.00;;
70459;SDS011;57920;54.796;9.430;2022-08-23T03:38:33;2.83;;;1.70;;
70459;SDS011;57920;54.796;9.430;2022-08-23T03:40:59;3.47;;;1.83;;
70459;SDS011;57920;54.796;9.430;2022-08-23T03:43:25;1.57;;;1.47;;
70459;SDS011;57920;54.796;9.430;2022-08-23T03:45:51;1.90;;;1.70;;
70459;SDS011;57920;54.796;9.430;2022-08-23T03:48:17;2.87;;;1.50;;
70459;SDS011;57920;54.796;9.430;2022-08-23T03:50:42;2.67;;;1.70;;
70459;SDS011;57920;54.796;9.430;2022-08-23T03:53:20;2.73;;;1.50;;
70459;SDS011;57920;54.796;9.430;2022-08-23T03:55:48;1.70;;;1.40;;
70459;SDS011;57920;54.796;9.430;2022-08-23T03:58:14;2.67;;;1.70;;
70459;SDS011;57920;54.796;9.430;2022-08-23T04:00:41;2.20;;;1.43;;
70459;SDS011;57920;54.796;9.430;2022-08-23T04:03:06;1.97;;;1.77;;
70459;SDS011;57920;54.796;9.430;2022-08-23T04:05:32;2.27;;;1.50;;
70459;SDS011;57920;54.796;9.430;2022-08-23T04:07:58;3.20;;;1.80;;
70459;SDS011;57920;54.796;9.430;2022-08-23T04:10:26;1.93;;;1.77;;
70459;SDS011;57920;54.796;9.430;2022-08-23T04:12:51;2.27;;;1.40;;
70459;SDS011;57920;54.796;9.430;2022-08-23T04:15:18;2.60;;;1.60;;
70459;SDS011;57920;54.796;9.430;2022-08-23T04:17:44;2.50;;;1.60;;
70459;SDS011;57920;54.796;9.430;2022-08-23T04:20:09;2.40;;;1.80;;
70459;SDS011;57920;54.796;9.430;2022-08-23T04:22:35;2.27;;;1.40;;
70459;SDS011;57920;54.796;9.430;2022-08-23T04:25:01;2.23;;;1.43;;
70459;SDS011;57920;54.796;9.430;2022-08-23T04:27:27;3.10;;;1.90;;
70459;SDS011;57920;54.796;9.430;2022-08-23T04:29:53;2.57;;;1.30;;
70459;SDS011;57920;54.796;9.430;2022-08-23T04:32:18;2.00;;;1.30;;
70459;SDS011;57920;54.796;9.430;2022-08-23T04:34:44;2.30;;;1.50;;
70459;SDS011;57920;54.796;9.430;2022-08-23T04:37:11;2.43;;;2.00;;
70459;SDS011;57920;54.796;9.430;2022-08-23T04:39:37;3.47;;;1.83;;
70459;SDS011;57920;54.796;9.430;2022-08-23T04:42:21;1.80;;;1.50;;
70459;SDS011;57920;54.796;9.430;2022-08-23T04:44:49;3.03;;;1.70;;
70459;SDS011;57920;54.796;9.430;2022-08-23T04:47:15;2.00;;;1.70;;
70459;SDS011;57920;54.796;9.430;2022-08-23T04:49:41;2.13;;;1.40;;
70459;SDS011;57920;54.796;9.430;2022-08-23T04:52:07;2.37;;;1.83;;
70459;SDS011;57920;54.796;9.430;2022-08-23T04:54:32;2.77;;;1.90;;
70459;SDS011;57920;54.796;9.430;2022-08-23T04:56:58;3.07;;;2.03;;
70459;SDS011;57920;54.796;9.430;2022-08-23T04:59:23;2.50;;;1.60;;
70459;SDS011;57920;54.796;9.430;2022-08-23T05:01:49;1.87;;;1.37;;
70459;SDS011;57920;54.796;9.430;2022-08-23T05:04:15;3.07;;;2.00;;
70459;SDS011;57920;54.796;9.430;2022-08-23T05:06:42;3.00;;;1.90;;
70459;SDS011;57920;54.796;9.430;2022-08-23T05:09:09;1.73;;;1.53;;
70459;SDS011;57920;54.796;9.430;2022-08-23T05:11:34;2.77;;;1.47;;
70459;SDS011;57920;54.796;9.430;2022-08-23T05:14:00;2.03;;;1.60;;
70459;SDS011;57920;54.796;9.430;2022-08-23T05:16:25;3.17;;;1.90;;
70459;SDS011;57920;54.796;9.430;2022-08-23T05:18:51;3.23;;;2.23;;
70459;SDS011;57920;54.796;9.430;2022-08-23T05:21:18;4.47;;;2.00;;
70459;SDS011;57920;54.796;9.430;2022-08-23T05:23:46;1.93;;;1.23;;
70459;SDS011;57920;54.796;9.430;2022-08-23T05:26:12;2.43;;;1.90;;
70459;SDS011;57920;54.796;9.430;2022-08-23T05:28:40;1.93;;;1.70;;
70459;SDS011;57920;54.796;9.430;2022-08-23T05:31:12;3.00;;;1.80;;
70459;SDS011;57920;54.796;9.430;2022-08-23T05:33:45;3.03;;;1.57;;
70459;SDS011;57920;54.796;9.430;2022-08-23T05:36:12;3.20;;;1.83;;
70459;SDS011;57920;54.796;9.430;2022-08-23T05:38:39;2.50;;;2.00;;
70459;SDS011;57920;54.796;9.430;2022-08-23T05:41:06;2.93;;;2.23;;
70459;SDS011;57920;54.796;9.430;2022-08-23T05:43:32;2.00;;;1.77;;
70459;SDS011;57920;54.796;9.430;2022-08-23T05:46:02;3.40;;;2.17;;
70459;SDS011;57920;54.796;9.430;2022-08-23T05:48:34;3.83;;;2.07;;
70459;SDS011;57920;54.796;9.430;2022-08-23T05:51:08;3.90;;;2.07;;
70459;SDS011;57920;54.796;9.430;2022-08-23T05:53:47;3.73;;;1.93;;
70459;SDS011;57920;54.796;9.430;2022-08-23T05:58:41;5.53;;;2.90;;
70459;SDS011;57920;54.796;9.430;2022-08-23T06:01:07;17.77;;;6.40;;
70459;SDS011;57920;54.796;9.430;2022-08-23T06:03:34;163.27;;;44.90;;
70459;SDS011;57920;54.796;9.430;2022-08-23T06:06:00;309.43;;;89.17;;
70459;SDS011;57920;54.796;9.430;2022-08-23T06:08:27;375.17;;;114.67;;
70459;SDS011;57920;54.796;9.430;2022-08-23T06:11:00;400.40;;;115.53;;
70459;SDS011;57920;54.796;9.430;2022-08-23T06:13:27;297.17;;;89.87;;
70459;SDS011;57920;54.796;9.430;2022-08-23T06:15:54;431.97;;;124.07;;
70459;SDS011;57920;54.796;9.430;2022-08-23T06:18:21;221.47;;;67.43;;
70459;SDS011;57920;54.796;9.430;2022-08-23T06:20:47;269.17;;;84.43;;
70459;SDS011;57920;54.796;9.430;2022-08-23T06:23:25;250.67;;;76.33;;
70459;SDS011;57920;54.796;9.430;2022-08-23T06:25:51;157.63;;;51.50;;
70459;SDS011;57920;54.796;9.430;2022-08-23T06:28:16;190.07;;;55.57;;
70459;SDS011;57920;54.796;9.430;2022-08-23T06:30:42;151.23;;;43.57;;
70459;SDS011;57920;54.796;9.430;2022-08-23T06:33:08;143.77;;;46.07;;
70459;SDS011;57920;54.796;9.430;2022-08-23T06:35:33;54.83;;;19.80;;
70459;SDS011;57920;54.796;9.430;2022-08-23T06:38:01;71.00;;;23.00;;
70459;SDS011;57920;54.796;9.430;2022-08-23T06:40:28;35.50;;;15.47;;
70459;SDS011;57920;54.796;9.430;2022-08-23T06:42:53;41.83;;;13.60;;
70459;SDS011;57920;54.796;9.430;2022-08-23T06:45:19;37.43;;;13.77;;
70459;SDS011;57920;54.796;9.430;2022-08-23T06:47:45;24.00;;;9.40;;
70459;SDS011;57920;54.796;9.430;2022-08-23T06:50:10;19.90;;;8.73;;
70459;SDS011;57920;54.796;9.430;2022-08-23T06:55:58;41.03;;;14.53;;
70459;SDS011;57920;54.796;9.430;2022-08-23T06:58:23;87.43;;;27.03;;
70459;SDS011;57920;54.796;9.430;2022-08-23T07:00:49;54.00;;;20.53;;
70459;SDS011;57920;54.796;9.430;2022-08-23T07:03:15;52.53;;;19.83;;
70459;SDS011;57920;54.796;9.430;2022-08-23T07:05:40;45.07;;;19.10;;
70459;SDS011;57920;54.796;9.430;2022-08-23T07:08:06;32.60;;;15.57;;
70459;SDS011;57920;54.796;9.430;2022-08-23T07:10:32;22.13;;;11.03;;
70459;SDS011;57920;54.796;9.430;2022-08-23T07:12:58;26.53;;;11.90;;
70459;SDS011;57920;54.796;9.430;2022-08-23T07:15:23;27.23;;;11.93;;
70459;SDS011;57920;54.796;9.430;2022-08-23T07:17:49;23.30;;;10.20;;
70459;SDS011;57920;54.796;9.430;2022-08-23T07:20:15;38.33;;;14.97;;
70459;SDS011;57920;54.796;9.430;2022-08-23T07:22:47;63.43;;;24.87;;
70459;SDS011;57920;54.796;9.430;2022-08-23T07:25:13;46.67;;;16.17;;
70459;SDS011;57920;54.796;9.430;2022-08-23T07:27:38;38.77;;;16.43;;
70459;SDS011;57920;54.796;9.430;2022-08-23T07:30:05;28.97;;;11.97;;
70459;SDS011;57920;54.796;9.430;2022-08-23T07:32:31;30.53;;;12.40;;
70459;SDS011;57920;54.796;9.430;2022-08-23T07:34:57;18.40;;;9.73;;
70459;SDS011;57920;54.796;9.430;2022-08-23T07:37:22;20.57;;;8.43;;
70459;SDS011;57920;54.796;9.430;2022-08-23T07:39:48;16.03;;;8.73;;
70459;SDS011;57920;54.796;9.430;2022-08-23T07:42:14;14.27;;;6.93;;
70459;SDS011;57920;54.796;9.430;2022-08-23T07:44:39;14.63;;;8.47;;
70459;SDS011;57920;54.796;9.430;2022-08-23T07:47:05;12.07;;;7.43;;
70459;SDS011;57920;54.796;9.430;2022-08-23T07:49:31;12.20;;;8.23;;
70459;SDS011;57920;54.796;9.430;2022-08-23T07:51:56;12.47;;;8.20;;
70459;SDS011;57920;54.796;9.430;2022-08-23T07:54:23;16.57;;;7.03;;
70459;SDS011;57920;54.796;9.430;2022-08-23T07:56:50;7.50;;;6.10;;
70459;SDS011;57920;54.796;9.430;2022-08-23T07:59:16;10.90;;;6.20;;
70459;SDS011;57920;54.796;9.430;2022-08-23T08:01:42;8.67;;;5.40;;
70459;SDS011;57920;54.796;9.430;2022-08-23T08:04:08;5.67;;;4.50;;
70459;SDS011;57920;54.796;9.430;2022-08-23T08:06:39;9.43;;;5.60;;
70459;SDS011;57920;54.796;9.430;2022-08-23T08:09:07;39.97;;;12.93;;
70459;SDS011;57920;54.796;9.430;2022-08-23T08:11:33;22.60;;;9.43;;
70459;SDS011;57920;54.796;9.430;2022-08-23T08:14:00;15.30;;;7.73;;
70459;SDS011;57920;54.796;9.430;2022-08-23T08:16:30;12.17;;;6.73;;
70459;SDS011;57920;54.796;9.430;2022-08-23T08:18:59;14.30;;;6.27;;
70459;SDS011;57920;54.796;9.430;2022-08-23T08:21:26;20.33;;;8.23;;
70459;SDS011;57920;54.796;9.430;2022-08-23T08:23:53;12.93;;;6.40;;
70459;SDS011;57920;54.796;9.430;2022-08-23T08:26:19;25.37;;;14.70;;
70459;SDS011;57920;54.796;9.430;2022-08-23T08:28:45;19.50;;;11.87;;
70459;SDS011;57920;54.796;9.430;2022-08-23T08:31:11;18.17;;;8.33;;
70459;SDS011;57920;54.796;9.430;2022-08-23T08:33:37;15.83;;;10.20;;
70459;SDS011;57920;54.796;9.430;2022-08-23T08:36:04;13.33;;;6.90;;
70459;SDS011;57920;54.796;9.430;2022-08-23T08:38:30;16.47;;;8.77;;
70459;SDS011;57920;54.796;9.430;2022-08-23T08:41:02;20.17;;;7.70;;
70459;SDS011;57920;54.796;9.430;2022-08-23T08:44:13;12.23;;;6.80;;
70459;SDS011;57920;54.796;9.430;2022-08-23T08:48:59;12.53;;;7.50;;
70459;SDS011;57920;54.796;9.430;2022-08-23T08:54:29;6.20;;;3.83;;
70459;SDS011;57920;54.796;9.430;2022-08-23T08:56:56;6.07;;;5.13;;
70459;SDS011;57920;54.796;9.430;2022-08-23T08:59:44;7.93;;;5.40;;
70459;SDS011;57920;54.796;9.430;2022-08-23T09:02:25;7.63;;;5.03;;
70459;SDS011;57920;54.796;9.430;2022-08-23T09:04:56;9.00;;;5.10;;
70459;SDS011;57920;54.796;9.430;2022-08-23T09:07:27;6.53;;;3.13;;
70459;SDS011;57920;54.796;9.430;2022-08-23T09:10:08;5.20;;;3.97;;
70459;SDS011;57920;54.796;9.430;2022-08-23T09:18:52;6.73;;;3.90;;
70459;SDS011;57920;54.796;9.430;2022-08-23T09:21:18;7.43;;;4.77;;
70459;SDS011;57920;54.796;9.430;2022-08-23T09:23:45;5.03;;;4.00;;
70459;SDS011;57920;54.796;9.430;2022-08-23T09:26:23;5.63;;;4.23;;
70459;SDS011;57920;54.796;9.430;2022-08-23T09:28:50;4.87;;;3.53;;
70459;SDS011;57920;54.796;9.430;2022-08-23T09:34:43;4.90;;;3.67;;
70459;SDS011;57920;54.796;9.430;2022-08-23T09:37:13;4.00;;;3.27;;
70459;SDS011;57920;54.796;9.430;2022-08-23T09:42:43;4.47;;;3.20;;
70459;SDS011;57920;54.796;9.430;2022-08-23T09:51:17;2.70;;;2.47;;
70459;SDS011;57920;54.796;9.430;2022-08-23T09:53:49;4.73;;;3.27;;
70459;SDS011;57920;54.796;9.430;2022-08-23T09:56:31;5.73;;;3.90;;
70459;SDS011;57920;54.796;9.430;2022-08-23T09:59:00;6.00;;;4.30;;
70459;SDS011;57920;54.796;9.430;2022-08-23T10:01:27;5.57;;;3.50;;
70459;SDS011;57920;54.796;9.430;2022-08-23T10:04:20;5.37;;;3.20;;
70459;SDS011;57920;54.796;9.430;2022-08-23T10:06:49;5.07;;;2.33;;
70459;SDS011;57920;54.796;9.430;2022-08-23T10:09:26;8.57;;;2.90;;
70459;SDS011;57920;54.796;9.430;2022-08-23T10:11:54;4.87;;;2.47;;
70459;SDS011;57920;54.796;9.430;2022-08-23T10:14:24;3.77;;;2.77;;
70459;SDS011;57920;54.796;9.430;2022-08-23T10:16:56;4.67;;;3.07;;
70459;SDS011;57920;54.796;9.430;2022-08-23T10:19:40;6.77;;;3.70;;
70459;SDS011;57920;54.796;9.430;2022-08-23T10:22:13;6.37;;;4.77;;
70459;SDS011;57920;54.796;9.430;2022-08-23T10:24:44;6.37;;;3.90;;
70459;SDS011;57920;54.796;9.430;2022-08-23T10:30:28;5.10;;;2.63;;
70459;SDS011;57920;54.796;9.430;2022-08-23T10:33:25;3.83;;;2.97;;
70459;SDS011;57920;54.796;9.430;2022-08-23T10:36:08;5.20;;;2.70;;
70459;SDS011;57920;54.796;9.430;2022-08-23T10:38:58;3.37;;;2.87;;
70459;SDS011;57920;54.796;9.430;2022-08-23T10:46:50;4.43;;;3.13;;
70459;SDS011;57920;54.796;9.430;2022-08-23T10:49:18;5.27;;;3.30;;
70459;SDS011;57920;54.796;9.430;2022-08-23T10:51:46;5.23;;;3.50;;
70459;SDS011;57920;54.796;9.430;2022-08-23T10:54:15;5.03;;;3.87;;
70459;SDS011;57920;54.796;9.430;2022-08-23T10:56:43;5.07;;;3.50;;
70459;SDS011;57920;54.796;9.430;2022-08-23T10:59:09;5.90;;;3.60;;
70459;SDS011;57920;54.796;9.430;2022-08-23T11:04:25;5.27;;;2.73;;
70459;SDS011;57920;54.796;9.430;2022-08-23T11:06:57;7.10;;;3.43;;
70459;SDS011;57920;54.796;9.430;2022-08-23T11:14:38;2.57;;;2.37;;
70459;SDS011;57920;54.796;9.430;2022-08-23T11:17:07;12.53;;;4.73;;
70459;SDS011;57920;54.796;9.430;2022-08-23T11:19:47;52.27;;;9.77;;
70459;SDS011;57920;54.796;9.430;2022-08-23T11:24:55;27.13;;;5.90;;
70459;SDS011;57920;54.796;9.430;2022-08-23T11:27:31;14.03;;;4.80;;
70459;SDS011;57920;54.796;9.430;2022-08-23T11:29:57;19.67;;;5.73;;
70459;SDS011;57920;54.796;9.430;2022-08-23T11:33:17;13.07;;;4.80;;
70459;SDS011;57920;54.796;9.430;2022-08-23T11:35:51;10.03;;;4.57;;
70459;SDS011;57920;54.796;9.430;2022-08-23T11:38:59;7.17;;;3.83;;
70459;SDS011;57920;54.796;9.430;2022-08-23T11:41:33;11.37;;;4.30;;
70459;SDS011;57920;54.796;9.430;2022-08-23T11:55:03;7.07;;;4.23;;
70459;SDS011;57920;54.796;9.430;2022-08-23T12:00:17;18.07;;;7.87;;
70459;SDS011;57920;54.796;9.430;2022-08-23T12:05:23;23.97;;;15.50;;
70459;SDS011;57920;54.796;9.430;2022-08-23T12:18:35;74.10;;;30.33;;
70459;SDS011;57920;54.796;9.430;2022-08-23T12:24:31;53.07;;;21.37;;
70459;SDS011;57920;54.796;9.430;2022-08-23T12:27:22;49.13;;;20.73;;
70459;SDS011;57920;54.796;9.430;2022-08-23T12:30:10;32.23;;;14.33;;
70459;SDS011;57920;54.796;9.430;2022-08-23T12:38:44;25.20;;;9.50;;
70459;SDS011;57920;54.796;9.430;2022-08-23T12:41:24;59.40;;;15.00;;
70459;SDS011;57920;54.796;9.430;2022-08-23T12:46:33;23.53;;;7.70;;
70459;SDS011;57920;54.796;9.430;2022-08-23T12:49:00;21.80;;;8.13;;
70459;SDS011;57920;54.796;9.430;2022-08-23T12:51:29;17.43;;;7.07;;
70459;SDS011;57920;54.796;9.430;2022-08-23T12:53:55;52.80;;;24.33;;
70459;SDS011;57920;54.796;9.430;2022-08-23T12:56:24;28.43;;;14.37;;
70459;SDS011;57920;54.796;9.430;2022-08-23T12:58:54;37.17;;;17.60;;
70459;SDS011;57920;54.796;9.430;2022-08-23T13:03:52;14.07;;;7.13;;
70459;SDS011;57920;54.796;9.430;2022-08-23T13:06:45;9.07;;;5.90;;
70459;SDS011;57920;54.796;9.430;2022-08-23T13:11:56;18.57;;;8.93;;
70459;SDS011;57920;54.796;9.430;2022-08-23T13:14:32;13.33;;;6.57;;
70459;SDS011;57920;54.796;9.430;2022-08-23T13:17:15;9.43;;;5.50;;
70459;SDS011;57920;54.796;9.430;2022-08-23T13:19:50;9.73;;;5.13;;
70459;SDS011;57920;54.796;9.430;2022-08-23T13:22:26;11.97;;;5.63;;
70459;SDS011;57920;54.796;9.430;2022-08-23T13:28:20;9.90;;;4.80;;
70459;SDS011;57920;54.796;9.430;2022-08-23T13:30:23;11.03;;;5.00;;
70459;SDS011;57920;54.796;9.430;2022-08-23T13:32:52;24.87;;;14.13;;
70459;SDS011;57920;54.796;9.430;2022-08-23T13:40:44;9.03;;;4.20;;
70459;SDS011;57920;54.796;9.430;2022-08-23T13:43:20;9.17;;;4.33;;
70459;SDS011;57920;54.796;9.430;2022-08-23T13:45:59;4.70;;;3.43;;
70459;SDS011;57920;54.796;9.430;2022-08-23T13:48:34;8.37;;;4.27;;
70459;SDS011;57920;54.796;9.430;2022-08-23T13:54:13;9.17;;;4.93;;
70459;SDS011;57920;54.796;9.430;2022-08-23T13:56:44;8.93;;;4.70;;
70459;SDS011;57920;54.796;9.430;2022-08-23T14:02:04;8.30;;;3.93;;
70459;SDS011;57920;54.796;9.430;2022-08-23T14:04:38;9.73;;;4.40;;
70459;SDS011;57920;54.796;9.430;2022-08-23T14:07:05;11.93;;;5.60;;
70459;SDS011;57920;54.796;9.430;2022-08-23T14:09:31;8.07;;;4.63;;
70459;SDS011;57920;54.796;9.430;2022-08-23T14:12:00;7.10;;;4.20;;
70459;SDS011;57920;54.796;9.430;2022-08-23T14:14:30;7.60;;;4.60;;
70459;SDS011;57920;54.796;9.430;2022-08-23T14:16:57;5.20;;;3.87;;
70459;SDS011;57920;54.796;9.430;2022-08-23T14:19:23;4.63;;;3.07;;
70459;SDS011;57920;54.796;9.430;2022-08-23T14:21:49;6.77;;;3.33;;
70459;SDS011;57920;54.796;9.430;2022-08-23T14:24:15;5.53;;;3.73;;
70459;SDS011;57920;54.796;9.430;2022-08-23T14:26:40;7.60;;;4.23;;
70459;SDS011;57920;54.796;9.430;2022-08-23T14:29:06;8.43;;;4.47;;
70459;SDS011;57920;54.796;9.430;2022-08-23T14:31:32;5.70;;;4.10;;
70459;SDS011;57920;54.796;9.430;2022-08-23T14:33:57;9.33;;;4.17;;
70459;SDS011;57920;54.796;9.430;2022-08-23T14:36:23;6.97;;;3.40;;
70459;SDS011;57920;54.796;9.430;2022-08-23T14:38:48;5.50;;;3.03;;
70459;SDS011;57920;54.796;9.430;2022-08-23T14:41:18;5.77;;;3.60;;
70459;SDS011;57920;54.796;9.430;2022-08-23T14:43:47;5.03;;;3.30;;
70459;SDS011;57920;54.796;9.430;2022-08-23T14:46:13;5.20;;;3.87;;
70459;SDS011;57920;54.796;9.430;2022-08-23T14:48:39;6.23;;;3.77;;
70459;SDS011;57920;54.796;9.430;2022-08-23T14:51:05;5.73;;;3.30;;
70459;SDS011;57920;54.796;9.430;2022-08-23T14:53:36;4.03;;;3.30;;
70459;SDS011;57920;54.796;9.430;2022-08-23T14:56:02;4.97;;;3.80;;
70459;SDS011;57920;54.796;9.430;2022-08-23T14:58:28;5.27;;;4.00;;
70459;SDS011;57920;54.796;9.430;2022-08-23T15:00:53;5.03;;;4.00;;
70459;SDS011;57920;54.796;9.430;2022-08-23T15:03:22;6.47;;;3.60;;
70459;SDS011;57920;54.796;9.430;2022-08-23T15:05:49;6.00;;;3.40;;
70459;SDS011;57920;54.796;9.430;2022-08-23T15:08:15;6.20;;;3.00;;
70459;SDS011;57920;54.796;9.430;2022-08-23T15:10:41;3.00;;;2.17;;
70459;SDS011;57920;54.796;9.430;2022-08-23T15:13:07;5.20;;;3.20;;
70459;SDS011;57920;54.796;9.430;2022-08-23T15:15:33;3.87;;;3.20;;
70459;SDS011;57920;54.796;9.430;2022-08-23T15:18:00;3.80;;;2.73;;
70459;SDS011;57920;54.796;9.430;2022-08-23T15:20:28;4.60;;;3.17;;
70459;SDS011;57920;54.796;9.430;2022-08-23T15:22:58;5.63;;;3.33;;
70459;SDS011;57920;54.796;9.430;2022-08-23T15:25:24;6.07;;;3.40;;
70459;SDS011;57920;54.796;9.430;2022-08-23T15:27:53;3.70;;;3.10;;
70459;SDS011;57920;54.796;9.430;2022-08-23T15:30:19;3.53;;;2.60;;
70459;SDS011;57920;54.796;9.430;2022-08-23T15:32:46;4.63;;;3.20;;
70459;SDS011;57920;54.796;9.430;2022-08-23T15:35:11;4.13;;;3.20;;
70459;SDS011;57920;54.796;9.430;2022-08-23T15:37:38;4.70;;;3.17;;
70459;SDS011;57920;54.796;9.430;2022-08-23T15:40:05;4.00;;;2.97;;
70459;SDS011;57920;54.796;9.430;2022-08-23T15:42:32;3.63;;;2.53;;
70459;SDS011;57920;54.796;9.430;2022-08-23T15:44:58;2.97;;;2.47;;
70459;SDS011;57920;54.796;9.430;2022-08-23T15:47:25;2.50;;;2.30;;
70459;SDS011;57920;54.796;9.430;2022-08-23T15:49:53;4.10;;;3.20;;
70459;SDS011;57920;54.796;9.430;2022-08-23T15:52:19;4.20;;;2.80;;
70459;SDS011;57920;54.796;9.430;2022-08-23T15:54:45;2.77;;;2.50;;
70459;SDS011;57920;54.796;9.430;2022-08-23T15:57:15;3.30;;;2.80;;
70459;SDS011;57920;54.796;9.430;2022-08-23T15:59:44;3.20;;;2.73;;
70459;SDS011;57920;54.796;9.430;2022-08-23T16:02:11;4.00;;;2.70;;
70459;SDS011;57920;54.796;9.430;2022-08-23T16:04:37;5.07;;;2.20;;
70459;SDS011;57920;54.796;9.430;2022-08-23T16:07:09;3.40;;;2.77;;
70459;SDS011;57920;54.796;9.430;2022-08-23T16:09:39;3.50;;;2.80;;
70459;SDS011;57920;54.796;9.430;2022-08-23T16:12:05;4.70;;;3.03;;
70459;SDS011;57920;54.796;9.430;2022-08-23T16:14:32;3.60;;;2.70;;
70459;SDS011;57920;54.796;9.430;2022-08-23T16:16:58;4.27;;;2.80;;
70459;SDS011;57920;54.796;9.430;2022-08-23T16:19:25;2.33;;;2.13;;
70459;SDS011;57920;54.796;9.430;2022-08-23T16:21:51;3.97;;;3.27;;
70459;SDS011;57920;54.796;9.430;2022-08-23T16:24:18;3.10;;;2.10;;
70459;SDS011;57920;54.796;9.430;2022-08-23T16:26:45;5.93;;;2.73;;
70459;SDS011;57920;54.796;9.430;2022-08-23T16:29:12;3.00;;;2.63;;
70459;SDS011;57920;54.796;9.430;2022-08-23T16:31:41;3.77;;;2.70;;
70459;SDS011;57920;54.796;9.430;2022-08-23T16:34:08;3.90;;;2.50;;
70459;SDS011;57920;54.796;9.430;2022-08-23T16:36:36;2.80;;;1.97;;
70459;SDS011;57920;54.796;9.430;2022-08-23T16:39:04;3.97;;;2.60;;
70459;SDS011;57920;54.796;9.430;2022-08-23T16:41:30;3.40;;;2.47;;
70459;SDS011;57920;54.796;9.430;2022-08-23T16:43:56;3.10;;;2.57;;
70459;SDS011;57920;54.796;9.430;2022-08-23T16:46:22;3.47;;;2.43;;
70459;SDS011;57920;54.796;9.430;2022-08-23T16:48:48;2.73;;;2.10;;
70459;SDS011;57920;54.796;9.430;2022-08-23T16:51:14;4.90;;;2.80;;